createdAt,value
2022-10-23T00:00:52.710Z,223.00
2022-10-23T00:04:03.601Z,298.80
2022-10-23T00:07:11.813Z,105.00
2022-10-23T00:10:21.495Z,304.20
2022-10-23T00:13:29.687Z,70.80
2022-10-23T00:16:38.175Z,44.10
2022-10-23T00:19:46.681Z,58.00
2022-10-23T00:22:55.311Z,72.80
2022-10-23T00:26:03.880Z,34.10
2022-10-23T00:29:12.695Z,38.50
2022-10-23T00:32:20.886Z,34.90
2022-10-23T00:35:28.847Z,271.80
2022-10-23T00:38:37.200Z,303.20
2022-10-23T00:41:45.203Z,124.30
2022-10-23T00:45:28.048Z,163.80
2022-10-23T00:48:35.849Z,204.80
2022-10-23T00:51:49.050Z,80.60
2022-10-23T00:54:58.013Z,73.80
2022-10-23T00:58:06.291Z,58.60
2022-10-23T01:01:24.757Z,146.60
2022-10-23T01:04:33.405Z,217.10
2022-10-23T01:07:51.852Z,139.10
2022-10-23T01:14:19.322Z,190.30
2022-10-23T01:17:39.674Z,61.80
2022-10-23T01:20:56.626Z,46.00
2022-10-23T01:24:20.659Z,104.10
2022-10-23T01:27:33.334Z,104.60
2022-10-23T01:30:45.915Z,152.30
2022-10-23T01:34:02.033Z,177.50
2022-10-23T01:37:15.274Z,254.10
2022-10-23T01:40:30.600Z,311.40
2022-10-23T01:43:49.216Z,218.70
2022-10-23T01:47:00.625Z,193.20
2022-10-23T01:50:12.804Z,248.90
2022-10-23T01:53:22.241Z,253.00
2022-10-23T01:56:36.284Z,291.20
2022-10-23T01:59:51.265Z,341.60
2022-10-23T02:03:03.373Z,295.90
2022-10-23T02:06:12.487Z,320.00
2022-10-23T02:09:20.295Z,362.10
2022-10-23T02:12:39.715Z,276.70
2022-10-23T02:15:55.674Z,240.80
2022-10-23T02:19:18.783Z,211.10
2022-10-23T02:22:32.174Z,183.20
2022-10-23T02:25:50.511Z,163.40
2022-10-23T02:32:21.999Z,217.30
2022-10-23T02:35:29.894Z,218.70
2022-10-23T02:38:42.372Z,236.70
2022-10-23T02:41:56.485Z,247.80
2022-10-23T02:45:02.830Z,231.90
2022-10-23T02:48:18.752Z,376.60
2022-10-23T02:51:40.607Z,287.90
2022-10-23T02:55:15.193Z,257.10
2022-10-23T02:58:33.942Z,209.50
2022-10-23T03:01:51.330Z,120.80
2022-10-23T03:05:01.821Z,99.80
2022-10-23T03:08:11.616Z,82.70
2022-10-23T03:11:19.792Z,107.50
2022-10-23T03:14:27.897Z,65.30
2022-10-23T03:17:35.698Z,34.00
2022-10-23T03:20:43.467Z,31.10
2022-10-23T03:23:51.980Z,28.40
2022-10-23T03:30:10.429Z,58.40
2022-10-23T03:33:18.640Z,32.60
2022-10-23T03:36:26.860Z,49.20
2022-10-23T03:39:34.938Z,35.90
2022-10-23T03:42:42.959Z,35.20
2022-10-23T03:45:50.924Z,59.90
2022-10-23T03:48:59.733Z,48.90
2022-10-23T03:52:08.373Z,30.00
2022-10-23T03:55:17.883Z,51.80
2022-10-23T03:58:25.681Z,122.30
2022-10-23T04:01:33.629Z,164.30
2022-10-23T04:04:41.406Z,142.30
2022-10-23T04:07:49.285Z,49.50
2022-10-23T04:10:58.470Z,36.50
2022-10-23T04:14:06.602Z,40.50
2022-10-23T04:17:14.301Z,51.70
2022-10-23T04:20:22.513Z,33.00
2022-10-23T04:23:30.728Z,31.80
2022-10-23T04:26:38.763Z,28.20
2022-10-23T04:29:46.448Z,36.20
2022-10-23T04:32:56.192Z,25.60
2022-10-23T04:36:04.198Z,27.10
2022-10-23T04:39:13.126Z,29.00
2022-10-23T04:42:21.094Z,31.70
2022-10-23T04:45:29.212Z,28.80
2022-10-23T04:48:37.171Z,30.20
2022-10-23T04:51:44.892Z,32.20
2022-10-23T04:54:52.930Z,32.70
2022-10-23T04:58:00.883Z,29.10
2022-10-23T05:01:10.620Z,30.00
2022-10-23T05:07:24.610Z,28.60
2022-10-23T05:10:33.128Z,29.40
2022-10-23T05:13:41.131Z,29.50
2022-10-23T05:16:55.220Z,28.70
2022-10-23T05:20:07.729Z,28.00
2022-10-23T05:23:19.598Z,27.70
2022-10-23T05:26:28.091Z,29.60
2022-10-23T05:29:36.021Z,28.20
2022-10-23T05:32:44.292Z,27.90
2022-10-23T05:35:52.515Z,29.10
2022-10-23T05:39:00.826Z,28.60
2022-10-23T05:42:09.246Z,25.70
2022-10-23T05:45:17.502Z,29.20
2022-10-23T05:48:35.501Z,25.40
2022-10-23T05:51:44.412Z,21.80
2022-10-23T05:54:53.734Z,24.70
2022-10-23T05:58:02.733Z,25.50
2022-10-23T06:01:13.881Z,23.70
2022-10-23T06:04:21.785Z,25.70
2022-10-23T06:07:33.726Z,25.50
2022-10-23T06:10:43.765Z,26.20
2022-10-23T06:13:52.035Z,25.70
2022-10-23T06:16:59.888Z,24.30
2022-10-23T06:20:09.815Z,24.30
2022-10-23T06:26:24.202Z,23.50
2022-10-23T06:29:32.518Z,22.20
2022-10-23T06:32:40.751Z,25.60
2022-10-23T06:35:49.302Z,25.20
2022-10-23T06:38:57.582Z,21.30
2022-10-23T06:42:05.587Z,24.80
2022-10-23T06:45:14.083Z,58.70
2022-10-23T06:48:22.141Z,59.40
2022-10-23T06:51:30.016Z,63.60
2022-10-23T06:54:37.794Z,38.60
2022-10-23T06:57:46.376Z,21.80
2022-10-23T07:00:54.875Z,87.80
2022-10-23T07:04:03.554Z,75.90
2022-10-23T07:07:11.378Z,60.90
2022-10-23T07:10:19.849Z,66.10
2022-10-23T07:13:27.980Z,71.60
2022-10-23T07:16:35.975Z,83.40
2022-10-23T07:19:43.815Z,60.30
2022-10-23T07:22:57.609Z,54.90
2022-10-23T07:26:11.216Z,30.00
2022-10-23T07:29:19.593Z,34.90
2022-10-23T07:32:28.658Z,31.90
2022-10-23T07:35:38.580Z,25.80
2022-10-23T07:38:47.914Z,23.30
2022-10-23T07:41:55.977Z,26.20
2022-10-23T07:45:04.554Z,29.30
2022-10-23T07:48:12.580Z,32.20
2022-10-23T07:51:20.644Z,35.30
2022-10-23T07:54:28.826Z,25.50
2022-10-23T07:57:36.604Z,23.80
2022-10-23T08:00:45.639Z,22.80
2022-10-23T08:03:53.630Z,22.60
2022-10-23T08:07:02.063Z,20.20
2022-10-23T08:10:11.497Z,20.30
2022-10-23T08:13:20.645Z,19.40
2022-10-23T08:16:29.600Z,16.30
2022-10-23T08:19:38.770Z,14.30
2022-10-23T08:22:47.204Z,15.60
2022-10-23T08:26:02.839Z,14.90
2022-10-23T08:29:10.798Z,15.10
2022-10-23T08:32:19.120Z,16.50
2022-10-23T08:35:27.593Z,13.90
2022-10-23T08:38:36.351Z,13.90
2022-10-23T08:41:49.574Z,14.20
2022-10-23T08:45:07.718Z,14.40
2022-10-23T08:48:26.858Z,16.90
2022-10-23T08:51:44.016Z,14.00
2022-10-23T08:55:01.541Z,12.90
2022-10-23T08:58:16.890Z,13.80
2022-10-23T09:01:43.373Z,15.40
2022-10-23T09:04:55.997Z,13.70
2022-10-23T09:08:25.010Z,12.40
2022-10-23T09:11:43.200Z,12.60
2022-10-23T09:15:21.573Z,13.30
2022-10-23T09:18:29.617Z,12.80
2022-10-23T09:21:39.077Z,12.60
2022-10-23T09:24:53.012Z,11.00
2022-10-23T09:28:05.744Z,11.60
2022-10-23T09:31:16.164Z,13.30
2022-10-23T09:34:28.165Z,11.80
2022-10-23T09:37:46.595Z,13.70
2022-10-23T09:40:54.942Z,12.70
2022-10-23T09:44:20.347Z,12.00
2022-10-23T09:47:29.686Z,12.60
2022-10-23T09:50:38.237Z,11.80
2022-10-23T09:53:56.894Z,12.40
2022-10-23T09:57:03.026Z,10.90
2022-10-23T10:00:25.275Z,13.80
2022-10-23T10:03:33.850Z,11.10
2022-10-23T10:09:56.326Z,9.70
2022-10-23T10:16:22.637Z,10.10
2022-10-23T10:19:52.491Z,9.60
2022-10-23T10:23:08.488Z,7.90
2022-10-23T10:26:31.933Z,8.10
2022-10-23T10:30:03.311Z,7.70
2022-10-23T10:33:20.430Z,9.00
2022-10-23T10:36:52.233Z,10.30
2022-10-23T10:40:11.774Z,7.50
2022-10-23T10:46:53.160Z,8.90
2022-10-23T10:50:17.625Z,9.30
2022-10-23T10:53:35.222Z,9.50
2022-10-23T10:56:46.646Z,8.50
2022-10-23T10:59:57.881Z,7.60
2022-10-23T11:03:23.426Z,7.10
2022-10-23T11:06:38.608Z,8.20
2022-10-23T11:09:48.011Z,8.70
2022-10-23T11:12:56.333Z,5.70
2022-10-23T11:16:15.407Z,5.40
2022-10-23T11:19:29.500Z,7.70
2022-10-23T11:22:50.219Z,6.90
2022-10-23T11:26:20.306Z,5.50
2022-10-23T11:30:00.552Z,5.80
2022-10-23T11:34:19.208Z,7.50
2022-10-23T11:37:28.763Z,8.00
2022-10-23T11:40:37.190Z,6.30
2022-10-23T11:43:57.789Z,7.20
2022-10-23T11:47:26.128Z,7.20
2022-10-23T11:50:53.750Z,6.10
2022-10-23T11:54:03.216Z,7.00
2022-10-23T11:57:18.630Z,8.10
2022-10-23T12:00:32.090Z,10.10
2022-10-23T12:04:03.566Z,9.00
2022-10-23T12:07:26.209Z,9.90
2022-10-23T12:10:45.132Z,10.30
2022-10-23T12:13:53.088Z,9.00
2022-10-23T12:17:01.580Z,9.10
2022-10-23T12:20:28.407Z,10.80
2022-10-23T12:24:10.761Z,10.50
2022-10-23T12:27:34.225Z,11.10
2022-10-23T12:30:57.011Z,13.50
2022-10-23T12:34:23.616Z,13.30
2022-10-23T12:38:03.409Z,17.00
2022-10-23T12:41:17.542Z,17.70
2022-10-23T12:44:28.197Z,18.80
2022-10-23T12:50:56.306Z,18.20
2022-10-23T12:54:15.068Z,21.40
2022-10-23T12:57:28.474Z,20.40
2022-10-23T13:00:36.485Z,20.70
2022-10-23T13:03:45.297Z,23.30
2022-10-23T13:06:56.130Z,25.50
2022-10-23T13:10:03.780Z,23.50
2022-10-23T13:13:19.128Z,25.10
2022-10-23T13:16:30.166Z,23.20
2022-10-23T13:19:41.424Z,25.70
2022-10-23T13:22:54.161Z,24.10
2022-10-23T13:26:06.354Z,22.30
2022-10-23T13:29:27.477Z,23.30
2022-10-23T13:32:35.272Z,20.60
2022-10-23T13:35:44.195Z,19.40
2022-10-23T13:39:05.008Z,19.50
2022-10-23T13:42:19.130Z,19.10
2022-10-23T13:45:37.592Z,25.40
2022-10-23T13:48:45.966Z,31.20
2022-10-23T13:55:22.088Z,18.00
2022-10-23T13:58:30.162Z,19.90
2022-10-23T14:01:39.642Z,17.20
2022-10-23T14:04:47.874Z,14.90
2022-10-23T14:07:56.309Z,10.50
2022-10-23T14:11:05.107Z,9.30
2022-10-23T14:14:13.586Z,8.10
2022-10-23T14:17:22.198Z,8.60
2022-10-23T14:20:31.407Z,8.10
2022-10-23T14:23:39.765Z,8.40
2022-10-23T14:26:48.230Z,9.30
2022-10-23T14:29:57.683Z,8.90
2022-10-23T14:33:06.101Z,9.60
2022-10-23T14:36:15.363Z,8.70
2022-10-23T14:39:25.316Z,20.70
2022-10-23T14:42:34.553Z,10.10
2022-10-23T14:45:42.848Z,10.70
2022-10-23T14:48:56.456Z,11.50
2022-10-23T14:52:09.565Z,10.50
2022-10-23T14:55:18.634Z,10.60
2022-10-23T14:58:27.153Z,9.80
2022-10-23T15:01:42.290Z,9.60
2022-10-23T15:04:53.925Z,9.30
2022-10-23T15:08:01.848Z,10.50
2022-10-23T15:11:12.595Z,11.10
2022-10-23T15:14:21.042Z,10.10
2022-10-23T15:17:29.477Z,9.80
2022-10-23T15:20:37.356Z,9.70
2022-10-23T15:23:47.760Z,9.60
2022-10-23T15:26:55.401Z,9.70
2022-10-23T15:30:03.748Z,7.50
2022-10-23T15:33:16.461Z,7.50
2022-10-23T15:36:28.209Z,7.30
2022-10-23T15:39:36.749Z,8.60
2022-10-23T15:42:46.081Z,9.20
2022-10-23T15:45:54.324Z,7.30
2022-10-23T15:49:02.781Z,7.20
2022-10-23T15:55:25.740Z,7.20
2022-10-23T16:01:40.587Z,9.20
2022-10-23T16:04:48.601Z,10.10
2022-10-23T16:07:56.913Z,7.90
2022-10-23T16:11:05.481Z,9.40
2022-10-23T16:14:19.582Z,10.20
2022-10-23T16:17:27.438Z,8.80
2022-10-23T16:20:35.644Z,8.70
2022-10-23T16:23:43.824Z,15.50
2022-10-23T16:26:53.535Z,15.60
2022-10-23T16:33:11.247Z,9.30
2022-10-23T16:36:21.059Z,11.60
2022-10-23T16:39:30.647Z,10.40
2022-10-23T16:42:39.760Z,12.40
2022-10-23T16:45:47.920Z,11.70
2022-10-23T16:48:57.091Z,10.70
2022-10-23T16:52:05.208Z,11.60
2022-10-23T16:55:14.328Z,12.60
2022-10-23T16:58:22.276Z,11.30
2022-10-23T17:01:32.660Z,11.80
2022-10-23T17:04:42.578Z,11.30
2022-10-23T17:11:11.628Z,12.20
2022-10-23T17:14:28.323Z,14.20
2022-10-23T17:17:36.630Z,12.10
2022-10-23T17:20:44.931Z,11.70
2022-10-23T17:23:53.974Z,12.10
2022-10-23T17:27:02.054Z,10.90
2022-10-23T17:30:13.567Z,13.40
2022-10-23T17:33:21.893Z,11.80
2022-10-23T17:36:32.835Z,13.60
2022-10-23T17:39:43.463Z,14.20
2022-10-23T17:42:51.650Z,15.30
2022-10-23T17:45:59.585Z,14.20
2022-10-23T17:49:08.417Z,14.80
2022-10-23T17:52:16.879Z,13.40
2022-10-23T17:55:25.141Z,14.10
2022-10-23T17:58:34.116Z,14.00
2022-10-23T18:01:44.128Z,14.20
2022-10-23T18:04:52.501Z,12.70
2022-10-23T18:08:00.608Z,10.10
2022-10-23T18:11:09.565Z,13.50
2022-10-23T18:14:20.976Z,12.80
2022-10-23T18:17:29.034Z,10.80
2022-10-23T18:20:41.537Z,12.80
2022-10-23T18:23:50.582Z,11.50
2022-10-23T18:26:58.788Z,11.30
2022-10-23T18:30:08.164Z,11.20
2022-10-23T18:33:17.232Z,9.90
2022-10-23T18:36:29.380Z,9.30
2022-10-23T18:39:37.573Z,9.20
2022-10-23T18:42:46.142Z,11.50
2022-10-23T18:45:55.131Z,10.20
2022-10-23T18:52:12.802Z,10.30
2022-10-23T18:55:21.099Z,10.70
2022-10-23T18:58:29.269Z,10.10
2022-10-23T19:01:38.196Z,11.20
2022-10-23T19:04:46.407Z,10.90
2022-10-23T19:07:55.483Z,10.50
2022-10-23T19:11:05.280Z,10.20
2022-10-23T19:17:26.986Z,12.00
2022-10-23T19:20:36.049Z,11.60
2022-10-23T19:23:45.774Z,11.80
2022-10-23T19:26:55.409Z,10.90
2022-10-23T19:30:06.595Z,12.30
2022-10-23T19:33:14.404Z,11.20
2022-10-23T19:36:23.685Z,11.80
2022-10-23T19:39:32.202Z,11.90
2022-10-23T19:42:42.729Z,11.00
2022-10-23T19:45:50.922Z,12.50
2022-10-23T19:48:58.974Z,11.80
2022-10-23T19:52:07.082Z,12.30
2022-10-23T19:55:15.474Z,10.30
2022-10-23T19:58:23.262Z,11.70
2022-10-23T20:01:31.562Z,11.20
2022-10-23T20:04:39.818Z,12.40
2022-10-23T20:07:48.818Z,10.60
2022-10-23T20:14:10.511Z,12.90
2022-10-23T20:17:18.393Z,12.30
2022-10-23T20:20:27.124Z,12.60
2022-10-23T20:23:34.857Z,12.80
2022-10-23T20:26:45.808Z,12.50
2022-10-23T20:29:53.897Z,13.00
2022-10-23T20:33:01.824Z,11.90
2022-10-23T20:36:26.737Z,13.30
2022-10-23T20:39:36.617Z,13.80
2022-10-23T20:42:44.467Z,16.70
2022-10-23T20:45:52.293Z,16.60
2022-10-23T20:49:00.409Z,15.50
2022-10-23T20:52:09.016Z,16.00
2022-10-23T20:55:16.783Z,17.40
2022-10-23T20:58:25.027Z,15.80
2022-10-23T21:01:34.372Z,16.80
2022-10-23T21:04:42.471Z,15.30
2022-10-23T21:07:50.149Z,15.30
2022-10-23T21:10:57.986Z,14.00
2022-10-23T21:14:05.688Z,16.00
2022-10-23T21:17:17.200Z,14.90
2022-10-23T21:20:24.847Z,15.30
2022-10-23T21:23:33.585Z,17.00
2022-10-23T21:26:41.657Z,15.90
2022-10-23T21:29:49.691Z,16.60
2022-10-23T21:32:57.709Z,15.40
2022-10-23T21:36:13.754Z,14.50
2022-10-23T21:39:22.005Z,17.20
2022-10-23T21:42:31.043Z,17.50
2022-10-23T21:45:39.356Z,17.70
2022-10-23T21:48:48.667Z,19.40
2022-10-23T21:51:56.514Z,17.60
2022-10-23T21:55:05.276Z,19.50
2022-10-23T21:58:13.181Z,18.60
2022-10-23T22:01:21.658Z,21.50
2022-10-23T22:04:29.732Z,20.00
2022-10-23T22:07:37.563Z,20.00
2022-10-23T22:10:45.226Z,23.40
2022-10-23T22:13:53.679Z,20.10
2022-10-23T22:17:01.642Z,24.50
2022-10-23T22:20:11.807Z,23.10
2022-10-23T22:23:19.654Z,24.60
2022-10-23T22:26:31.820Z,26.20
2022-10-23T22:29:39.474Z,24.80
2022-10-23T22:32:47.653Z,22.60
2022-10-23T22:36:00.804Z,24.00
2022-10-23T22:39:10.131Z,25.30
2022-10-23T22:42:17.801Z,27.30
2022-10-23T22:45:25.918Z,26.00
2022-10-23T22:48:33.621Z,25.90
2022-10-23T22:51:42.087Z,26.00
2022-10-23T22:54:50.455Z,23.90
2022-10-23T22:57:58.691Z,25.30
2022-10-23T23:01:11.759Z,22.90
2022-10-23T23:07:47.970Z,23.50
2022-10-23T23:10:59.292Z,23.50
2022-10-23T23:17:19.954Z,22.40
2022-10-23T23:20:27.927Z,23.70
2022-10-23T23:23:36.446Z,23.00
2022-10-23T23:26:44.220Z,22.70
2022-10-23T23:29:52.486Z,20.10
2022-10-23T23:33:00.206Z,21.20
2022-10-23T23:36:17.267Z,20.10
2022-10-23T23:39:26.226Z,21.60
2022-10-23T23:42:36.180Z,17.90
2022-10-23T23:45:43.970Z,24.10
2022-10-23T23:48:52.283Z,20.10
2022-10-23T23:52:00.082Z,19.80
2022-10-23T23:55:09.466Z,18.10
2022-10-23T23:58:17.776Z,20.70
